createdAt,value
2023-07-11T00:00:27.496Z,99661.59
2023-07-11T00:02:56.602Z,99669.44
2023-07-11T00:05:25.800Z,99675.38
2023-07-11T00:07:54.923Z,99671.78
2023-07-11T00:10:24.091Z,99675.81
2023-07-11T00:12:54.611Z,99667.69
2023-07-11T00:15:24.276Z,99667.22
2023-07-11T00:17:54.578Z,99666.25
2023-07-11T00:20:23.967Z,99665.78
2023-07-11T00:22:53.064Z,99671.41
2023-07-11T00:25:22.580Z,99667.81
2023-07-11T00:27:51.650Z,99671.56
2023-07-11T00:30:22.084Z,99666.06
2023-07-11T00:32:51.202Z,99671.25
2023-07-11T00:35:22.599Z,99672.97
2023-07-11T00:37:51.665Z,99658.41
2023-07-11T00:40:20.654Z,99657.91
2023-07-11T00:42:53.055Z,99654.78
2023-07-11T00:46:04.970Z,99666.16
2023-07-11T00:48:37.570Z,99663.78
2023-07-11T00:51:09.553Z,99667.56
2023-07-11T00:53:41.413Z,99672.88
2023-07-11T00:56:17.045Z,99662.06
2023-07-11T00:58:47.804Z,99668.78
2023-07-11T01:01:36.940Z,99671.59
2023-07-11T01:04:08.118Z,99663.13
2023-07-11T01:06:37.763Z,99669.53
2023-07-11T01:09:06.786Z,99667.50
2023-07-11T01:11:56.494Z,99666.53
2023-07-11T01:14:27.057Z,99664.50
2023-07-11T01:17:00.016Z,99666.22
2023-07-11T01:19:29.168Z,99661.50
2023-07-11T01:21:59.582Z,99656.78
2023-07-11T01:24:28.580Z,99653.66
2023-07-11T01:26:57.795Z,99648.19
2023-07-11T01:29:26.850Z,99653.00
2023-07-11T01:31:55.887Z,99648.78
2023-07-11T01:34:28.354Z,99651.75
2023-07-11T01:36:57.369Z,99647.03
2023-07-11T01:39:27.780Z,99644.38
2023-07-11T01:41:59.603Z,99645.78
2023-07-11T01:44:29.873Z,99636.22
2023-07-11T01:46:59.265Z,99636.53
2023-07-11T01:49:30.165Z,99637.63
2023-07-11T01:52:09.597Z,99630.22
2023-07-11T01:54:39.925Z,99629.78
2023-07-11T01:57:09.645Z,99621.31
2023-07-11T01:59:40.235Z,99622.41
2023-07-11T02:02:10.940Z,99613.94
2023-07-11T02:04:40.432Z,99618.00
2023-07-11T02:07:09.999Z,99617.22
2023-07-11T02:09:40.588Z,99619.41
2023-07-11T02:12:11.753Z,99612.81
2023-07-11T02:14:41.858Z,99611.56
2023-07-11T02:17:11.365Z,99605.00
2023-07-11T02:19:40.442Z,99602.16
2023-07-11T02:22:09.840Z,99597.47
2023-07-11T02:24:41.798Z,99591.97
2023-07-11T02:27:11.310Z,99599.44
2023-07-11T02:29:40.349Z,99593.97
2023-07-11T02:32:10.495Z,99586.00
2023-07-11T02:34:39.570Z,99576.78
2023-07-11T02:37:08.580Z,99580.81
2023-07-11T02:39:39.019Z,99583.81
2023-07-11T02:42:08.649Z,99580.66
2023-07-11T02:44:37.826Z,99582.06
2023-07-11T02:47:07.492Z,99585.78
2023-07-11T02:49:39.437Z,99587.97
2023-07-11T02:52:12.137Z,99580.59
2023-07-11T02:54:44.879Z,99582.75
2023-07-11T02:57:14.380Z,99578.56
2023-07-11T02:59:43.442Z,99573.53
2023-07-11T03:02:12.405Z,99576.47
2023-07-11T03:04:41.449Z,99580.53
2023-07-11T03:07:10.508Z,99582.38
2023-07-11T03:09:40.177Z,99569.72
2023-07-11T03:12:12.190Z,99580.94
2023-07-11T03:14:41.187Z,99583.13
2023-07-11T03:17:10.251Z,99577.31
2023-07-11T03:19:39.267Z,99578.72
2023-07-11T03:22:08.764Z,99576.66
2023-07-11T03:24:37.743Z,99571.66
2023-07-11T03:27:07.403Z,99570.41
2023-07-11T03:29:37.786Z,99568.63
2023-07-11T03:32:08.215Z,99563.94
2023-07-11T03:34:39.482Z,99561.59
2023-07-11T03:37:15.319Z,99569.06
2023-07-11T03:39:44.535Z,99566.41
2023-07-11T03:42:13.601Z,99560.63
2023-07-11T03:44:45.926Z,99564.38
2023-07-11T03:47:14.966Z,99563.88
2023-07-11T03:49:47.012Z,99559.97
2023-07-11T03:52:16.040Z,99563.22
2023-07-11T03:54:48.088Z,99570.41
2023-07-11T03:57:18.493Z,99566.97
2023-07-11T03:59:49.134Z,99556.94
2023-07-11T04:02:18.514Z,99559.91
2023-07-11T04:04:47.756Z,99555.19
2023-07-11T04:07:16.753Z,99550.19
2023-07-11T04:09:46.016Z,99553.94
2023-07-11T04:12:18.195Z,99551.56
2023-07-11T04:14:48.618Z,99549.22
2023-07-11T04:17:17.672Z,99543.13
2023-07-11T04:19:46.655Z,99548.72
2023-07-11T04:22:15.843Z,99547.97
2023-07-11T04:24:45.234Z,99539.19
2023-07-11T04:27:16.223Z,99542.94
2023-07-11T04:29:45.526Z,99552.44
2023-07-11T04:32:15.958Z,99546.66
2023-07-11T04:34:45.072Z,99549.31
2023-07-11T04:37:14.260Z,99545.38
2023-07-11T04:39:43.252Z,99545.66
2023-07-11T04:42:12.560Z,99543.03
2023-07-11T04:44:41.692Z,99546.75
2023-07-11T04:47:20.509Z,99549.41
2023-07-11T04:49:51.205Z,99539.72
2023-07-11T04:52:20.461Z,99548.94
2023-07-11T04:54:49.715Z,99548.16
2023-07-11T04:57:19.083Z,99534.09
2023-07-11T04:59:48.358Z,99541.00
2023-07-11T05:02:17.649Z,99542.34
2023-07-11T05:04:46.990Z,99541.88
2023-07-11T05:07:17.735Z,99540.81
2023-07-11T05:09:58.643Z,99536.59
2023-07-11T05:12:28.935Z,99536.09
2023-07-11T05:14:58.386Z,99537.94
2023-07-11T05:17:27.689Z,99535.28
2023-07-11T05:19:59.212Z,99530.00
2023-07-11T05:22:29.641Z,99517.84
2023-07-11T05:24:58.955Z,99531.09
2023-07-11T05:27:28.559Z,99520.47
2023-07-11T05:29:57.891Z,99523.63
2023-07-11T05:32:27.220Z,99525.19
2023-07-11T05:34:56.498Z,99517.72
2023-07-11T05:37:26.213Z,99519.28
2023-07-11T05:39:56.674Z,99512.59
2023-07-11T05:42:27.720Z,99514.94
2023-07-11T05:44:57.879Z,99518.41
2023-07-11T05:47:27.060Z,99506.72
2023-07-11T05:49:56.317Z,99516.22
2023-07-11T05:52:25.722Z,99509.84
2023-07-11T05:54:56.500Z,99504.25
2023-07-11T05:57:25.652Z,99501.00
2023-07-11T05:59:54.706Z,99501.19
2023-07-11T06:02:23.992Z,99489.50
2023-07-11T06:04:53.070Z,99487.34
2023-07-11T06:07:23.754Z,99491.56
2023-07-11T06:09:54.774Z,99484.84
2023-07-11T06:12:27.230Z,99487.22
2023-07-11T06:14:56.781Z,99486.31
2023-07-11T06:17:27.584Z,99484.16
2023-07-11T06:19:57.025Z,99487.75
2023-07-11T06:22:26.192Z,99477.16
2023-07-11T06:24:55.226Z,99479.19
2023-07-11T06:27:26.073Z,99474.53
2023-07-11T06:29:55.204Z,99478.44
2023-07-11T06:32:25.036Z,99475.50
2023-07-11T06:34:54.478Z,99475.69
2023-07-11T06:37:23.943Z,99469.78
2023-07-11T06:39:53.311Z,99461.19
2023-07-11T06:42:22.512Z,99464.81
2023-07-11T06:44:53.157Z,99468.13
2023-07-11T06:47:22.606Z,99459.25
2023-07-11T06:49:52.011Z,99454.91
2023-07-11T06:52:21.330Z,99449.47
2023-07-11T06:54:50.664Z,99454.66
2023-07-11T06:57:19.946Z,99448.75
2023-07-11T06:59:49.505Z,99444.06
2023-07-11T07:02:20.259Z,99435.50
2023-07-11T07:04:49.597Z,99441.91
2023-07-11T07:07:20.642Z,99433.63
2023-07-11T07:09:50.162Z,99418.81
2023-07-11T07:12:19.452Z,99420.84
2023-07-11T07:14:49.003Z,99423.84
2023-07-11T07:17:19.767Z,99413.53
2023-07-11T07:19:49.033Z,99419.81
2023-07-11T07:22:18.468Z,99413.28
2023-07-11T07:24:47.817Z,99402.78
2023-07-11T07:27:27.945Z,99403.91
2023-07-11T07:29:58.241Z,99398.44
2023-07-11T07:32:28.752Z,99409.84
2023-07-11T07:34:57.815Z,99400.94
2023-07-11T07:37:26.817Z,99395.94
2023-07-11T07:39:56.013Z,99400.00
2023-07-11T07:42:25.109Z,99396.84
2023-07-11T07:44:56.972Z,99389.22
2023-07-11T07:47:26.039Z,99384.84
2023-07-11T07:49:58.003Z,99399.22
2023-07-11T07:52:28.478Z,99394.50
2023-07-11T07:54:57.571Z,99389.47
2023-07-11T07:57:26.872Z,99382.59
2023-07-11T07:59:58.947Z,99380.22
2023-07-11T08:02:28.534Z,99382.09
2023-07-11T08:04:59.121Z,99378.94
2023-07-11T08:07:28.992Z,99375.78
2023-07-11T08:09:59.432Z,99373.09
2023-07-11T08:12:31.675Z,99373.41
2023-07-11T08:15:00.880Z,99366.13
2023-07-11T08:17:30.164Z,99361.09
2023-07-11T08:20:04.022Z,99346.97
2023-07-11T08:22:33.191Z,99358.34
2023-07-11T08:25:02.511Z,99352.22
2023-07-11T08:27:31.664Z,99350.25
2023-07-11T08:30:00.693Z,99352.53
2023-07-11T08:32:30.007Z,99338.09
2023-07-11T08:34:59.252Z,99343.78
2023-07-11T08:37:29.775Z,99341.53
2023-07-11T08:39:58.789Z,99336.25
2023-07-11T08:42:36.341Z,99333.97
2023-07-11T08:45:16.751Z,99330.88
2023-07-11T08:47:56.558Z,99328.25
2023-07-11T08:50:30.907Z,99323.63
2023-07-11T08:53:09.541Z,99330.56
2023-07-11T08:55:43.529Z,99324.81
2023-07-11T08:58:17.015Z,99322.03
2023-07-11T09:00:50.051Z,99321.94
2023-07-11T09:03:28.203Z,99318.81
2023-07-11T09:06:02.763Z,99334.44
2023-07-11T09:08:34.852Z,99318.50
2023-07-11T09:11:12.262Z,99311.94
2023-07-11T09:13:56.214Z,99304.16
2023-07-11T09:16:36.582Z,99310.13
2023-07-11T09:19:30.932Z,99315.25
2023-07-11T09:22:09.359Z,99314.34
2023-07-11T09:24:49.424Z,99306.22
2023-07-11T09:27:29.799Z,99292.31
2023-07-11T09:29:59.199Z,99296.75
2023-07-11T09:32:35.369Z,99288.91
2023-07-11T09:35:24.647Z,99282.22
2023-07-11T09:38:01.176Z,99286.63
2023-07-11T09:40:38.799Z,99290.63
2023-07-11T09:43:09.572Z,99283.47
2023-07-11T09:45:42.915Z,99286.38
2023-07-11T09:48:15.116Z,99278.88
2023-07-11T09:51:11.264Z,99273.72
2023-07-11T09:53:45.370Z,99275.38
2023-07-11T09:56:19.699Z,99264.84
2023-07-11T09:58:52.176Z,99263.81
2023-07-11T10:01:26.619Z,99264.78
2023-07-11T10:03:59.293Z,99262.19
2023-07-11T10:09:32.331Z,99259.47
2023-07-11T10:12:05.707Z,99259.66
2023-07-11T10:14:43.793Z,99257.94
2023-07-11T10:17:21.136Z,99253.16
2023-07-11T10:20:07.679Z,99257.56
2023-07-11T10:22:49.482Z,99249.69
2023-07-11T10:25:24.222Z,99238.47
2023-07-11T10:27:57.778Z,99237.94
2023-07-11T10:30:31.573Z,99247.31
2023-07-11T10:33:16.310Z,99237.91
2023-07-11T10:35:56.227Z,99237.69
2023-07-11T10:38:31.770Z,99235.56
2023-07-11T10:41:03.006Z,99232.72
2023-07-11T10:43:39.324Z,99226.75
2023-07-11T10:46:18.517Z,99225.75
2023-07-11T10:48:53.025Z,99224.00
2023-07-11T10:51:28.862Z,99222.94
2023-07-11T10:54:05.890Z,99231.09
2023-07-11T10:56:37.999Z,99216.59
2023-07-11T10:59:14.144Z,99221.38
2023-07-11T11:01:58.061Z,99211.47
2023-07-11T11:05:01.615Z,99201.59
2023-07-11T11:07:37.562Z,99200.16
2023-07-11T11:10:15.473Z,99200.28
2023-07-11T11:12:58.488Z,99187.34
2023-07-11T11:15:48.635Z,99187.81
2023-07-11T11:18:41.772Z,99184.44
2023-07-11T11:21:24.265Z,99178.34
2023-07-11T11:24:14.401Z,99170.00
2023-07-11T11:26:57.248Z,99183.50
2023-07-11T11:29:45.579Z,99164.78
2023-07-11T11:32:24.411Z,99157.56
2023-07-11T11:35:16.413Z,99141.84
2023-07-11T11:38:11.651Z,99155.69
2023-07-11T11:40:43.840Z,99145.78
2023-07-11T11:43:19.255Z,99144.72
2023-07-11T11:53:45.364Z,99123.84
2023-07-11T11:56:22.389Z,99128.13
2023-07-11T11:58:59.297Z,99123.16
2023-07-11T12:01:42.484Z,99112.50
2023-07-11T12:04:38.832Z,99113.31
2023-07-11T12:07:23.452Z,99106.44
2023-07-11T12:10:20.727Z,99105.72
2023-07-11T12:13:20.803Z,99104.22
2023-07-11T12:15:55.665Z,99101.97
2023-07-11T12:18:46.028Z,99095.47
2023-07-11T12:21:41.227Z,99094.34
2023-07-11T12:24:42.772Z,99093.59
2023-07-11T12:27:49.194Z,99090.13
2023-07-11T12:30:42.878Z,99087.50
2023-07-11T12:33:37.450Z,99072.91
2023-07-11T12:36:51.304Z,99071.38
2023-07-11T12:39:51.521Z,99067.53
2023-07-11T12:42:44.269Z,99071.41
2023-07-11T12:45:19.064Z,99071.47
2023-07-11T12:47:52.348Z,99059.19
2023-07-11T12:50:25.288Z,99070.00
2023-07-11T12:53:06.209Z,99067.72
2023-07-11T12:55:35.227Z,99059.28
2023-07-11T12:58:04.605Z,99057.00
2023-07-11T13:00:34.473Z,99055.50
2023-07-11T13:03:24.993Z,99047.84
2023-07-11T13:06:11.033Z,99039.41
2023-07-11T13:08:48.123Z,99040.19
2023-07-11T13:11:22.743Z,99032.56
2023-07-11T13:13:53.685Z,99024.13
2023-07-11T13:16:28.124Z,99024.16
2023-07-11T13:18:57.403Z,99031.47
2023-07-11T13:21:26.589Z,99019.56
2023-07-11T13:24:00.473Z,99017.69
2023-07-11T13:26:31.253Z,99004.25
2023-07-11T13:29:12.418Z,99006.56
2023-07-11T13:31:45.848Z,99004.25
2023-07-11T13:34:18.832Z,98995.06
2023-07-11T13:36:52.329Z,98995.44
2023-07-11T13:39:26.157Z,98997.38
2023-07-11T13:42:00.357Z,98974.34
2023-07-11T13:44:33.998Z,98973.59
2023-07-11T13:47:04.377Z,98963.59
2023-07-11T13:49:39.841Z,98966.69
2023-07-11T13:52:22.724Z,98968.22
2023-07-11T13:54:58.812Z,98960.94
2023-07-11T13:57:27.798Z,98963.66
2023-07-11T14:00:11.391Z,98964.06
2023-07-11T14:02:43.794Z,98956.00
2023-07-11T14:05:23.121Z,98964.44
2023-07-11T14:07:54.321Z,98958.69
2023-07-11T14:10:27.304Z,98953.69
2023-07-11T14:12:58.281Z,98949.84
2023-07-11T14:15:31.322Z,98955.63
2023-07-11T14:18:00.656Z,98955.63
2023-07-11T14:20:30.591Z,98956.03
2023-07-11T14:23:00.145Z,98956.03
2023-07-11T14:25:32.049Z,98940.28
2023-07-11T14:28:01.145Z,98941.44
2023-07-11T14:30:31.590Z,98940.66
2023-07-11T14:33:00.634Z,98949.91
2023-07-11T14:35:32.712Z,98939.91
2023-07-11T14:38:05.733Z,98942.22
2023-07-11T14:40:36.741Z,98947.59
2023-07-11T14:43:12.520Z,98944.59
2023-07-11T14:45:41.790Z,98947.28
2023-07-11T14:48:22.129Z,98941.53
2023-07-11T14:51:01.068Z,98943.06
2023-07-11T14:53:37.775Z,98940.75
2023-07-11T14:58:50.118Z,98942.31
2023-07-11T15:01:19.391Z,98936.56
2023-07-11T15:16:33.097Z,98928.06
2023-07-11T15:19:02.215Z,98923.84
2023-07-11T15:21:31.267Z,98910.41
2023-07-11T15:24:00.309Z,98910.78
2023-07-11T15:26:30.670Z,98911.94
2023-07-11T15:28:59.681Z,98907.72
2023-07-11T15:31:29.362Z,98907.72
2023-07-11T15:33:58.446Z,98906.13
2023-07-11T15:36:27.443Z,98896.94
2023-07-11T15:38:58.737Z,98897.72
2023-07-11T15:41:27.869Z,98893.91
2023-07-11T15:43:58.210Z,98885.03
2023-07-11T15:46:28.917Z,98886.19
2023-07-11T15:49:00.128Z,98898.53
2023-07-11T15:51:29.418Z,98896.59
2023-07-11T15:53:58.417Z,98892.00
2023-07-11T15:56:27.503Z,98906.22
2023-07-11T15:58:57.846Z,98903.13
2023-07-11T16:01:26.904Z,98902.38
2023-07-11T16:03:55.971Z,98905.44
2023-07-11T16:06:25.057Z,98901.22
2023-07-11T16:08:54.072Z,98906.59
2023-07-11T16:11:23.997Z,98905.44
2023-07-11T16:13:53.224Z,98911.59
2023-07-11T16:16:24.037Z,98905.81
2023-07-11T16:18:53.387Z,98894.69
2023-07-11T16:21:22.456Z,98900.44
2023-07-11T16:23:51.516Z,98888.88
2023-07-11T16:26:24.877Z,98890.81
2023-07-11T16:28:54.066Z,98903.50
2023-07-11T16:31:26.879Z,98901.19
2023-07-11T16:33:56.272Z,98895.00
2023-07-11T16:36:25.316Z,98888.88
2023-07-11T16:38:54.343Z,98891.56
2023-07-11T16:41:25.648Z,98886.19
2023-07-11T16:43:54.920Z,98886.19
2023-07-11T16:46:25.428Z,98876.16
2023-07-11T16:48:55.270Z,98876.16
2023-07-11T16:51:26.829Z,98870.38
2023-07-11T16:54:09.500Z,98864.59
2023-07-11T16:56:51.843Z,98861.50
2023-07-11T16:59:27.110Z,98859.59
2023-07-11T17:02:24.203Z,98854.19
2023-07-11T17:05:28.829Z,98841.09
2023-07-11T17:08:36.129Z,98835.72
2023-07-11T17:11:13.197Z,98833.03
2023-07-11T17:13:44.306Z,98841.47
2023-07-11T17:17:10.048Z,98855.28
2023-07-11T17:25:06.130Z,98811.06
2023-07-11T17:35:50.326Z,98779.91
2023-07-11T17:49:56.594Z,98747.53
2023-07-11T17:52:38.060Z,98693.38
2023-07-11T17:55:11.865Z,98668.44
2023-07-11T17:57:43.903Z,98646.91
2023-07-11T18:00:17.877Z,98668.78
2023-07-11T18:03:00.627Z,98697.56
2023-07-11T18:05:36.827Z,98706.00
2023-07-11T18:08:14.063Z,98678.75
2023-07-11T18:10:50.286Z,98685.22
2023-07-11T18:13:25.895Z,98684.09
2023-07-11T18:16:01.586Z,98672.97
2023-07-11T18:18:42.427Z,98664.50
2023-07-11T18:21:18.891Z,98676.38
2023-07-11T18:23:53.220Z,98675.19
2023-07-11T18:27:37.216Z,98700.84
2023-07-11T18:30:37.814Z,98755.72
2023-07-11T18:33:20.729Z,98784.09
2023-07-11T18:35:55.383Z,98808.66
2023-07-11T18:38:42.659Z,98819.31
2023-07-11T18:41:20.657Z,98780.13
2023-07-11T18:43:55.870Z,98739.06
2023-07-11T18:46:38.239Z,98724.81
2023-07-11T18:49:10.234Z,98702.91
2023-07-11T18:52:15.072Z,98678.69
2023-07-11T18:54:54.754Z,98645.63
2023-07-11T18:57:33.079Z,98639.47
2023-07-11T19:00:20.008Z,98639.47
2023-07-11T19:02:54.159Z,98643.31
2023-07-11T19:05:28.673Z,98657.88
2023-07-11T19:08:00.829Z,98648.63
2023-07-11T19:10:34.654Z,98644.09
2023-07-11T19:13:04.620Z,98618.00
2023-07-11T19:15:38.168Z,98629.84
2023-07-11T19:18:26.581Z,98655.13
2023-07-11T19:21:02.151Z,98653.19
2023-07-11T19:23:48.733Z,98640.88
2023-07-11T19:26:26.322Z,98646.22
2023-07-11T19:29:06.498Z,98627.75
2023-07-11T19:31:42.578Z,98636.53
2023-07-11T19:34:13.787Z,98637.63
2023-07-11T19:37:04.600Z,98629.53
2023-07-11T19:40:10.807Z,98639.84
2023-07-11T19:43:00.069Z,98646.28
2023-07-11T19:45:39.604Z,98663.91
2023-07-11T19:48:26.967Z,98662.28
2023-07-11T19:51:01.743Z,98664.16
2023-07-11T19:53:33.510Z,98668.72
2023-07-11T19:56:41.092Z,98681.72
2023-07-11T19:59:19.798Z,98681.69
2023-07-11T20:01:52.770Z,98689.72
2023-07-11T20:04:45.403Z,98686.22
2023-07-11T20:07:43.808Z,98685.47
2023-07-11T20:10:31.234Z,98685.03
2023-07-11T20:13:02.618Z,98683.44
2023-07-11T20:15:51.241Z,98682.69
2023-07-11T20:18:37.337Z,98687.25
2023-07-11T20:21:14.936Z,98683.72
2023-07-11T20:24:10.209Z,98694.06
2023-07-11T20:30:17.433Z,98715.00
2023-07-11T20:32:59.797Z,98723.72
2023-07-11T20:35:30.714Z,98733.34
2023-07-11T20:38:20.210Z,98730.66
2023-07-11T20:41:03.033Z,98757.03
2023-07-11T20:44:25.929Z,98822.47
2023-07-11T20:49:13.383Z,98843.81
2023-07-11T20:52:35.492Z,98749.19
2023-07-11T20:55:08.229Z,98728.50
2023-07-11T20:58:14.771Z,98793.09
2023-07-11T21:07:29.980Z,98836.88
2023-07-11T21:29:29.294Z,98848.22
2023-07-11T21:33:03.955Z,98897.75
2023-07-11T21:36:19.647Z,98921.28
2023-07-11T21:42:43.792Z,98961.38
2023-07-11T21:46:00.009Z,98997.81
2023-07-11T21:48:37.471Z,99024.75
2023-07-11T21:51:34.033Z,99055.53
2023-07-11T21:54:04.717Z,99111.16
2023-07-11T21:56:52.476Z,99161.44
2023-07-11T21:59:25.897Z,99187.88
2023-07-11T22:01:57.266Z,99234.78
2023-07-11T22:04:27.084Z,99242.63
2023-07-11T22:09:55.346Z,99202.56
2023-07-11T22:12:24.383Z,99134.81
2023-07-11T22:14:53.463Z,99127.59
2023-07-11T22:17:25.484Z,99150.53
2023-07-11T22:19:55.231Z,99126.56
2023-07-11T22:22:24.255Z,99094.22
2023-07-11T22:24:54.661Z,99051.88
2023-07-11T22:27:24.946Z,99016.47
2023-07-11T22:29:53.956Z,98996.09
2023-07-11T22:32:26.761Z,98977.25
2023-07-11T22:34:57.336Z,98920.34
2023-07-11T22:37:27.295Z,98900.03
2023-07-11T22:39:57.655Z,98861.63
2023-07-11T22:42:26.754Z,98880.34
2023-07-11T22:44:55.835Z,98912.16
2023-07-11T22:47:24.888Z,98980.06
2023-07-11T22:49:53.870Z,99085.28
2023-07-11T22:52:22.850Z,99042.34
2023-07-11T22:54:51.819Z,99019.38
2023-07-11T22:57:22.201Z,98993.44
2023-07-11T22:59:51.193Z,98983.03
2023-07-11T23:02:20.306Z,98991.19
2023-07-11T23:04:49.413Z,98975.88
2023-07-11T23:07:18.454Z,98957.91
2023-07-11T23:09:47.384Z,98955.56
2023-07-11T23:12:16.399Z,98951.03
2023-07-11T23:14:46.747Z,98936.22
2023-07-11T23:17:15.748Z,98931.97
2023-07-11T23:19:44.795Z,98934.94
2023-07-11T23:22:13.835Z,98927.34
2023-07-11T23:24:45.572Z,98934.81
2023-07-11T23:27:14.885Z,98941.56
2023-07-11T23:29:43.898Z,98937.66
2023-07-11T23:32:17.256Z,98945.19
2023-07-11T23:34:46.257Z,98951.63
2023-07-11T23:37:15.226Z,98951.94
2023-07-11T23:39:46.482Z,98968.63
2023-07-11T23:42:15.700Z,98984.59
2023-07-11T23:44:45.111Z,98987.56
2023-07-11T23:47:14.101Z,98986.47
2023-07-11T23:49:44.465Z,98969.75
2023-07-11T23:52:13.436Z,98961.00
2023-07-11T23:54:43.485Z,98972.41
2023-07-11T23:57:12.540Z,98981.50
2023-07-11T23:59:41.555Z,98972.72
